sensor_id;sensor_type;location;lat;lon;timestamp;P1;durP1;ratioP1;P2;durP2;ratioP2
58990;SDS011;44781;53.444;14.476;2022-12-05T00:01:28;45.70;;;23.90;;
58990;SDS011;44781;53.444;14.476;2022-12-05T00:04:07;39.40;;;22.00;;
58990;SDS011;44781;53.444;14.476;2022-12-05T00:06:37;43.90;;;23.50;;
58990;SDS011;44781;53.444;14.476;2022-12-05T00:09:05;40.60;;;22.50;;
58990;SDS011;44781;53.444;14.476;2022-12-05T00:11:35;42.60;;;23.10;;
58990;SDS011;44781;53.444;14.476;2022-12-05T00:14:05;45.90;;;24.80;;
58990;SDS011;44781;53.444;14.476;2022-12-05T00:16:35;48.70;;;24.40;;
58990;SDS011;44781;53.444;14.476;2022-12-05T00:19:04;45.10;;;23.40;;
58990;SDS011;44781;53.444;14.476;2022-12-05T00:21:34;47.00;;;24.00;;
58990;SDS011;44781;53.444;14.476;2022-12-05T00:24:03;41.40;;;23.10;;
58990;SDS011;44781;53.444;14.476;2022-12-05T00:26:32;37.30;;;20.40;;
58990;SDS011;44781;53.444;14.476;2022-12-05T00:29:00;39.40;;;22.10;;
58990;SDS011;44781;53.444;14.476;2022-12-05T00:31:27;41.70;;;22.40;;
58990;SDS011;44781;53.444;14.476;2022-12-05T00:33:55;38.10;;;22.20;;
58990;SDS011;44781;53.444;14.476;2022-12-05T00:36:26;38.80;;;22.70;;
58990;SDS011;44781;53.444;14.476;2022-12-05T00:38:59;40.90;;;21.30;;
58990;SDS011;44781;53.444;14.476;2022-12-05T00:41:30;41.00;;;22.60;;
58990;SDS011;44781;53.444;14.476;2022-12-05T00:43:58;40.90;;;21.20;;
58990;SDS011;44781;53.444;14.476;2022-12-05T00:46:27;40.50;;;22.60;;
58990;SDS011;44781;53.444;14.476;2022-12-05T00:48:57;37.00;;;21.40;;
58990;SDS011;44781;53.444;14.476;2022-12-05T00:51:27;40.90;;;21.80;;
58990;SDS011;44781;53.444;14.476;2022-12-05T00:53:59;39.30;;;21.40;;
58990;SDS011;44781;53.444;14.476;2022-12-05T00:56:29;42.50;;;23.40;;
58990;SDS011;44781;53.444;14.476;2022-12-05T00:58:58;38.50;;;22.30;;
58990;SDS011;44781;53.444;14.476;2022-12-05T01:01:28;42.20;;;23.30;;
58990;SDS011;44781;53.444;14.476;2022-12-05T01:04:00;41.70;;;22.80;;
58990;SDS011;44781;53.444;14.476;2022-12-05T01:06:30;41.00;;;23.00;;
58990;SDS011;44781;53.444;14.476;2022-12-05T01:08:57;40.90;;;22.40;;
58990;SDS011;44781;53.444;14.476;2022-12-05T01:11:25;35.70;;;20.40;;
58990;SDS011;44781;53.444;14.476;2022-12-05T01:13:53;38.10;;;20.30;;
58990;SDS011;44781;53.444;14.476;2022-12-05T01:16:31;37.60;;;20.60;;
58990;SDS011;44781;53.444;14.476;2022-12-05T01:19:03;36.00;;;20.40;;
58990;SDS011;44781;53.444;14.476;2022-12-05T01:21:31;39.30;;;21.20;;
58990;SDS011;44781;53.444;14.476;2022-12-05T01:23:59;35.50;;;20.00;;
58990;SDS011;44781;53.444;14.476;2022-12-05T01:26:26;34.60;;;20.70;;
58990;SDS011;44781;53.444;14.476;2022-12-05T01:28:54;36.10;;;21.00;;
58990;SDS011;44781;53.444;14.476;2022-12-05T01:31:25;38.00;;;21.80;;
58990;SDS011;44781;53.444;14.476;2022-12-05T01:33:55;37.50;;;19.40;;
58990;SDS011;44781;53.444;14.476;2022-12-05T01:36:24;33.50;;;19.40;;
58990;SDS011;44781;53.444;14.476;2022-12-05T01:38:53;35.30;;;19.90;;
58990;SDS011;44781;53.444;14.476;2022-12-05T01:41:22;38.70;;;20.90;;
58990;SDS011;44781;53.444;14.476;2022-12-05T01:43:56;40.20;;;21.40;;
58990;SDS011;44781;53.444;14.476;2022-12-05T01:46:26;37.50;;;20.60;;
58990;SDS011;44781;53.444;14.476;2022-12-05T01:48:59;39.80;;;21.10;;
58990;SDS011;44781;53.444;14.476;2022-12-05T01:51:31;35.50;;;20.40;;
58990;SDS011;44781;53.444;14.476;2022-12-05T01:53:59;40.00;;;21.10;;
58990;SDS011;44781;53.444;14.476;2022-12-05T01:56:27;33.20;;;19.90;;
58990;SDS011;44781;53.444;14.476;2022-12-05T01:58:54;35.10;;;19.90;;
58990;SDS011;44781;53.444;14.476;2022-12-05T02:01:22;36.10;;;20.00;;
58990;SDS011;44781;53.444;14.476;2022-12-05T02:03:49;36.70;;;19.30;;
58990;SDS011;44781;53.444;14.476;2022-12-05T02:06:18;39.50;;;19.90;;
58990;SDS011;44781;53.444;14.476;2022-12-05T02:08:46;36.60;;;19.60;;
58990;SDS011;44781;53.444;14.476;2022-12-05T02:11:15;37.30;;;19.90;;
58990;SDS011;44781;53.444;14.476;2022-12-05T02:21:43;29.70;;;16.90;;
58990;SDS011;44781;53.444;14.476;2022-12-05T02:27:27;35.60;;;19.40;;
58990;SDS011;44781;53.444;14.476;2022-12-05T02:30:13;32.20;;;18.80;;
58990;SDS011;44781;53.444;14.476;2022-12-05T02:33:27;34.70;;;19.10;;
58990;SDS011;44781;53.444;14.476;2022-12-05T02:35:51;32.50;;;17.90;;
58990;SDS011;44781;53.444;14.476;2022-12-05T02:38:49;33.00;;;18.90;;
58990;SDS011;44781;53.444;14.476;2022-12-05T02:41:31;35.60;;;20.00;;
58990;SDS011;44781;53.444;14.476;2022-12-05T02:44:13;31.50;;;17.00;;
58990;SDS011;44781;53.444;14.476;2022-12-05T02:46:44;31.10;;;17.30;;
58990;SDS011;44781;53.444;14.476;2022-12-05T02:49:21;29.60;;;16.40;;
58990;SDS011;44781;53.444;14.476;2022-12-05T02:51:52;31.30;;;17.40;;
58990;SDS011;44781;53.444;14.476;2022-12-05T02:56:55;29.80;;;17.10;;
58990;SDS011;44781;53.444;14.476;2022-12-05T02:59:26;30.10;;;16.70;;
58990;SDS011;44781;53.444;14.476;2022-12-05T03:01:53;32.60;;;18.00;;
58990;SDS011;44781;53.444;14.476;2022-12-05T03:04:21;33.20;;;17.80;;
58990;SDS011;44781;53.444;14.476;2022-12-05T03:06:56;30.70;;;17.10;;
58990;SDS011;44781;53.444;14.476;2022-12-05T03:09:33;30.60;;;16.90;;
58990;SDS011;44781;53.444;14.476;2022-12-05T03:12:13;31.00;;;16.80;;
58990;SDS011;44781;53.444;14.476;2022-12-05T03:14:57;28.70;;;17.40;;
58990;SDS011;44781;53.444;14.476;2022-12-05T03:17:31;32.70;;;17.40;;
58990;SDS011;44781;53.444;14.476;2022-12-05T03:20:07;32.20;;;18.00;;
58990;SDS011;44781;53.444;14.476;2022-12-05T03:23:24;34.80;;;17.90;;
58990;SDS011;44781;53.444;14.476;2022-12-05T03:25:45;32.90;;;17.40;;
58990;SDS011;44781;53.444;14.476;2022-12-05T03:31:07;28.60;;;16.20;;
58990;SDS011;44781;53.444;14.476;2022-12-05T03:33:39;29.00;;;17.10;;
58990;SDS011;44781;53.444;14.476;2022-12-05T03:36:11;33.90;;;18.20;;
58990;SDS011;44781;53.444;14.476;2022-12-05T03:38:44;34.00;;;17.00;;
58990;SDS011;44781;53.444;14.476;2022-12-05T03:41:21;29.80;;;16.80;;
58990;SDS011;44781;53.444;14.476;2022-12-05T03:44:01;36.20;;;16.80;;
58990;SDS011;44781;53.444;14.476;2022-12-05T03:46:40;30.90;;;17.00;;
58990;SDS011;44781;53.444;14.476;2022-12-05T03:52:10;34.70;;;17.60;;
58990;SDS011;44781;53.444;14.476;2022-12-05T03:54:43;29.00;;;16.40;;
58990;SDS011;44781;53.444;14.476;2022-12-05T04:02:11;29.40;;;17.30;;
58990;SDS011;44781;53.444;14.476;2022-12-05T04:04:45;32.70;;;18.80;;
58990;SDS011;44781;53.444;14.476;2022-12-05T04:07:18;35.10;;;19.30;;
58990;SDS011;44781;53.444;14.476;2022-12-05T04:09:49;34.80;;;17.90;;
58990;SDS011;44781;53.444;14.476;2022-12-05T04:12:22;33.80;;;18.70;;
58990;SDS011;44781;53.444;14.476;2022-12-05T04:14:55;32.20;;;18.20;;
58990;SDS011;44781;53.444;14.476;2022-12-05T04:17:47;30.70;;;17.60;;
58990;SDS011;44781;53.444;14.476;2022-12-05T04:20:34;33.00;;;17.70;;
58990;SDS011;44781;53.444;14.476;2022-12-05T04:23:25;36.00;;;17.60;;
58990;SDS011;44781;53.444;14.476;2022-12-05T04:26:14;31.90;;;18.20;;
58990;SDS011;44781;53.444;14.476;2022-12-05T04:29:11;33.50;;;17.70;;
58990;SDS011;44781;53.444;14.476;2022-12-05T04:31:48;31.10;;;18.20;;
58990;SDS011;44781;53.444;14.476;2022-12-05T04:34:23;32.60;;;17.90;;
58990;SDS011;44781;53.444;14.476;2022-12-05T04:36:55;30.70;;;18.30;;
58990;SDS011;44781;53.444;14.476;2022-12-05T04:39:39;33.60;;;17.40;;
58990;SDS011;44781;53.444;14.476;2022-12-05T04:42:14;30.90;;;18.60;;
58990;SDS011;44781;53.444;14.476;2022-12-05T04:44:47;33.00;;;19.20;;
58990;SDS011;44781;53.444;14.476;2022-12-05T04:47:18;32.90;;;17.80;;
58990;SDS011;44781;53.444;14.476;2022-12-05T04:49:51;31.20;;;17.10;;
58990;SDS011;44781;53.444;14.476;2022-12-05T04:52:21;30.50;;;18.20;;
58990;SDS011;44781;53.444;14.476;2022-12-05T04:54:54;34.90;;;18.40;;
58990;SDS011;44781;53.444;14.476;2022-12-05T05:00:21;29.20;;;16.70;;
58990;SDS011;44781;53.444;14.476;2022-12-05T05:02:53;34.60;;;18.60;;
58990;SDS011;44781;53.444;14.476;2022-12-05T05:05:34;32.00;;;18.90;;
58990;SDS011;44781;53.444;14.476;2022-12-05T05:08:03;32.20;;;18.60;;
58990;SDS011;44781;53.444;14.476;2022-12-05T05:10:38;34.90;;;19.60;;
58990;SDS011;44781;53.444;14.476;2022-12-05T05:13:11;31.90;;;17.50;;
58990;SDS011;44781;53.444;14.476;2022-12-05T05:15:38;34.30;;;19.60;;
58990;SDS011;44781;53.444;14.476;2022-12-05T05:18:05;34.10;;;19.20;;
58990;SDS011;44781;53.444;14.476;2022-12-05T05:20:33;33.60;;;19.40;;
58990;SDS011;44781;53.444;14.476;2022-12-05T05:23:00;29.90;;;17.90;;
58990;SDS011;44781;53.444;14.476;2022-12-05T05:25:30;33.70;;;18.70;;
58990;SDS011;44781;53.444;14.476;2022-12-05T05:27:58;32.50;;;17.80;;
58990;SDS011;44781;53.444;14.476;2022-12-05T05:30:25;34.40;;;19.10;;
58990;SDS011;44781;53.444;14.476;2022-12-05T05:32:52;32.20;;;18.40;;
58990;SDS011;44781;53.444;14.476;2022-12-05T05:35:20;30.60;;;18.30;;
58990;SDS011;44781;53.444;14.476;2022-12-05T05:37:47;32.20;;;18.70;;
58990;SDS011;44781;53.444;14.476;2022-12-05T05:40:16;36.90;;;19.90;;
58990;SDS011;44781;53.444;14.476;2022-12-05T05:42:44;36.20;;;20.10;;
58990;SDS011;44781;53.444;14.476;2022-12-05T05:45:14;33.10;;;18.60;;
58990;SDS011;44781;53.444;14.476;2022-12-05T05:47:41;33.40;;;19.60;;
58990;SDS011;44781;53.444;14.476;2022-12-05T05:50:09;32.20;;;18.20;;
58990;SDS011;44781;53.444;14.476;2022-12-05T05:52:36;35.20;;;19.00;;
58990;SDS011;44781;53.444;14.476;2022-12-05T05:55:04;36.60;;;20.30;;
58990;SDS011;44781;53.444;14.476;2022-12-05T05:57:32;36.70;;;20.30;;
58990;SDS011;44781;53.444;14.476;2022-12-05T05:59:59;33.90;;;18.80;;
58990;SDS011;44781;53.444;14.476;2022-12-05T06:02:31;33.70;;;19.20;;
58990;SDS011;44781;53.444;14.476;2022-12-05T06:04:59;35.70;;;18.40;;
58990;SDS011;44781;53.444;14.476;2022-12-05T06:07:27;32.90;;;18.10;;
58990;SDS011;44781;53.444;14.476;2022-12-05T06:09:55;32.10;;;19.00;;
58990;SDS011;44781;53.444;14.476;2022-12-05T06:12:22;33.10;;;20.00;;
58990;SDS011;44781;53.444;14.476;2022-12-05T06:14:50;33.30;;;19.00;;
58990;SDS011;44781;53.444;14.476;2022-12-05T06:17:17;38.80;;;20.30;;
58990;SDS011;44781;53.444;14.476;2022-12-05T06:19:44;36.40;;;20.30;;
58990;SDS011;44781;53.444;14.476;2022-12-05T06:22:12;32.80;;;18.40;;
58990;SDS011;44781;53.444;14.476;2022-12-05T06:24:39;33.50;;;18.40;;
58990;SDS011;44781;53.444;14.476;2022-12-05T06:27:06;35.00;;;18.80;;
58990;SDS011;44781;53.444;14.476;2022-12-05T06:29:34;31.10;;;18.50;;
58990;SDS011;44781;53.444;14.476;2022-12-05T06:32:01;34.10;;;18.80;;
58990;SDS011;44781;53.444;14.476;2022-12-05T06:34:29;33.50;;;20.30;;
58990;SDS011;44781;53.444;14.476;2022-12-05T06:36:59;37.30;;;20.90;;
58990;SDS011;44781;53.444;14.476;2022-12-05T06:39:26;37.20;;;19.70;;
58990;SDS011;44781;53.444;14.476;2022-12-05T06:41:55;36.30;;;20.60;;
58990;SDS011;44781;53.444;14.476;2022-12-05T06:44:23;37.80;;;20.30;;
58990;SDS011;44781;53.444;14.476;2022-12-05T06:46:55;34.80;;;19.40;;
58990;SDS011;44781;53.444;14.476;2022-12-05T06:49:24;36.10;;;19.30;;
58990;SDS011;44781;53.444;14.476;2022-12-05T06:51:58;32.80;;;18.20;;
58990;SDS011;44781;53.444;14.476;2022-12-05T06:54:25;36.30;;;20.00;;
58990;SDS011;44781;53.444;14.476;2022-12-05T06:56:52;32.80;;;18.50;;
58990;SDS011;44781;53.444;14.476;2022-12-05T06:59:19;37.10;;;19.30;;
58990;SDS011;44781;53.444;14.476;2022-12-05T07:01:46;31.80;;;20.20;;
58990;SDS011;44781;53.444;14.476;2022-12-05T07:04:20;38.30;;;20.80;;
58990;SDS011;44781;53.444;14.476;2022-12-05T07:06:52;32.60;;;20.00;;
58990;SDS011;44781;53.444;14.476;2022-12-05T07:09:21;32.80;;;19.20;;
58990;SDS011;44781;53.444;14.476;2022-12-05T07:12:11;37.50;;;20.20;;
58990;SDS011;44781;53.444;14.476;2022-12-05T07:14:40;42.30;;;21.70;;
58990;SDS011;44781;53.444;14.476;2022-12-05T07:17:08;39.50;;;20.70;;
58990;SDS011;44781;53.444;14.476;2022-12-05T07:19:35;40.90;;;21.10;;
58990;SDS011;44781;53.444;14.476;2022-12-05T07:22:03;43.20;;;24.00;;
58990;SDS011;44781;53.444;14.476;2022-12-05T07:24:30;42.60;;;22.50;;
58990;SDS011;44781;53.444;14.476;2022-12-05T07:26:57;42.70;;;23.90;;
58990;SDS011;44781;53.444;14.476;2022-12-05T07:29:27;43.60;;;22.30;;
58990;SDS011;44781;53.444;14.476;2022-12-05T07:31:54;40.30;;;21.90;;
58990;SDS011;44781;53.444;14.476;2022-12-05T07:34:22;33.30;;;19.90;;
58990;SDS011;44781;53.444;14.476;2022-12-05T07:36:48;34.90;;;19.80;;
58990;SDS011;44781;53.444;14.476;2022-12-05T07:39:16;32.40;;;18.30;;
58990;SDS011;44781;53.444;14.476;2022-12-05T07:41:43;33.40;;;19.70;;
58990;SDS011;44781;53.444;14.476;2022-12-05T07:44:13;40.10;;;20.30;;
58990;SDS011;44781;53.444;14.476;2022-12-05T07:46:40;30.00;;;18.30;;
58990;SDS011;44781;53.444;14.476;2022-12-05T07:49:07;36.10;;;20.70;;
58990;SDS011;44781;53.444;14.476;2022-12-05T07:51:34;35.90;;;19.70;;
58990;SDS011;44781;53.444;14.476;2022-12-05T07:54:02;31.80;;;17.20;;
58990;SDS011;44781;53.444;14.476;2022-12-05T07:56:29;25.60;;;16.70;;
58990;SDS011;44781;53.444;14.476;2022-12-05T07:58:56;27.40;;;17.40;;
58990;SDS011;44781;53.444;14.476;2022-12-05T08:01:26;27.30;;;16.90;;
58990;SDS011;44781;53.444;14.476;2022-12-05T08:03:54;27.20;;;15.90;;
58990;SDS011;44781;53.444;14.476;2022-12-05T08:06:27;32.30;;;17.20;;
58990;SDS011;44781;53.444;14.476;2022-12-05T08:08:56;30.00;;;17.00;;
58990;SDS011;44781;53.444;14.476;2022-12-05T08:11:25;32.50;;;20.90;;
58990;SDS011;44781;53.444;14.476;2022-12-05T08:13:57;31.70;;;18.00;;
58990;SDS011;44781;53.444;14.476;2022-12-05T08:16:25;34.90;;;19.90;;
58990;SDS011;44781;53.444;14.476;2022-12-05T08:18:58;28.80;;;16.40;;
58990;SDS011;44781;53.444;14.476;2022-12-05T08:21:33;27.60;;;16.20;;
58990;SDS011;44781;53.444;14.476;2022-12-05T08:24:04;29.90;;;18.60;;
58990;SDS011;44781;53.444;14.476;2022-12-05T08:29:09;28.90;;;16.20;;
58990;SDS011;44781;53.444;14.476;2022-12-05T08:31:39;28.80;;;16.50;;
58990;SDS011;44781;53.444;14.476;2022-12-05T08:34:14;25.80;;;16.10;;
58990;SDS011;44781;53.444;14.476;2022-12-05T08:36:43;27.30;;;17.20;;
58990;SDS011;44781;53.444;14.476;2022-12-05T08:39:12;28.40;;;17.80;;
58990;SDS011;44781;53.444;14.476;2022-12-05T08:41:42;26.70;;;15.60;;
58990;SDS011;44781;53.444;14.476;2022-12-05T08:44:10;23.20;;;12.90;;
58990;SDS011;44781;53.444;14.476;2022-12-05T08:49:10;23.10;;;13.80;;
58990;SDS011;44781;53.444;14.476;2022-12-05T08:54:07;36.00;;;21.60;;
58990;SDS011;44781;53.444;14.476;2022-12-05T08:56:35;27.30;;;18.10;;
58990;SDS011;44781;53.444;14.476;2022-12-05T08:59:04;27.70;;;17.20;;
58990;SDS011;44781;53.444;14.476;2022-12-05T09:01:32;27.70;;;18.00;;
58990;SDS011;44781;53.444;14.476;2022-12-05T09:04:03;28.60;;;18.30;;
58990;SDS011;44781;53.444;14.476;2022-12-05T09:06:31;26.40;;;15.60;;
58990;SDS011;44781;53.444;14.476;2022-12-05T09:09:04;31.70;;;22.60;;
58990;SDS011;44781;53.444;14.476;2022-12-05T09:11:37;29.10;;;18.50;;
58990;SDS011;44781;53.444;14.476;2022-12-05T09:14:06;29.20;;;21.20;;
58990;SDS011;44781;53.444;14.476;2022-12-05T09:16:34;28.50;;;18.20;;
58990;SDS011;44781;53.444;14.476;2022-12-05T09:19:03;25.10;;;16.10;;
58990;SDS011;44781;53.444;14.476;2022-12-05T09:21:47;28.90;;;18.30;;
58990;SDS011;44781;53.444;14.476;2022-12-05T09:24:14;31.50;;;19.00;;
58990;SDS011;44781;53.444;14.476;2022-12-05T09:26:41;28.80;;;16.10;;
58990;SDS011;44781;53.444;14.476;2022-12-05T09:29:09;23.60;;;15.20;;
58990;SDS011;44781;53.444;14.476;2022-12-05T09:31:38;24.30;;;13.90;;
58990;SDS011;44781;53.444;14.476;2022-12-05T09:34:09;21.90;;;15.60;;
58990;SDS011;44781;53.444;14.476;2022-12-05T09:36:39;22.30;;;14.80;;
58990;SDS011;44781;53.444;14.476;2022-12-05T09:39:07;24.60;;;15.40;;
58990;SDS011;44781;53.444;14.476;2022-12-05T09:53:08;20.50;;;12.60;;
58990;SDS011;44781;53.444;14.476;2022-12-05T10:07:32;25.90;;;15.70;;
58990;SDS011;44781;53.444;14.476;2022-12-05T10:10:18;23.20;;;15.90;;
58990;SDS011;44781;53.444;14.476;2022-12-05T10:13:00;22.20;;;13.40;;
58990;SDS011;44781;53.444;14.476;2022-12-05T10:15:56;21.70;;;15.40;;
58990;SDS011;44781;53.444;14.476;2022-12-05T10:18:31;21.70;;;14.90;;
58990;SDS011;44781;53.444;14.476;2022-12-05T10:21:04;20.90;;;15.40;;
58990;SDS011;44781;53.444;14.476;2022-12-05T10:23:56;20.30;;;15.20;;
58990;SDS011;44781;53.444;14.476;2022-12-05T10:26:33;19.80;;;14.10;;
58990;SDS011;44781;53.444;14.476;2022-12-05T10:31:44;21.00;;;13.30;;
58990;SDS011;44781;53.444;14.476;2022-12-05T10:34:16;19.80;;;13.40;;
58990;SDS011;44781;53.444;14.476;2022-12-05T10:36:57;18.50;;;13.50;;
58990;SDS011;44781;53.444;14.476;2022-12-05T10:39:35;20.60;;;13.20;;
58990;SDS011;44781;53.444;14.476;2022-12-05T10:42:04;19.60;;;13.30;;
58990;SDS011;44781;53.444;14.476;2022-12-05T10:44:32;21.30;;;14.10;;
58990;SDS011;44781;53.444;14.476;2022-12-05T10:47:00;20.30;;;13.70;;
58990;SDS011;44781;53.444;14.476;2022-12-05T10:49:27;21.50;;;15.00;;
58990;SDS011;44781;53.444;14.476;2022-12-05T10:51:55;20.40;;;14.10;;
58990;SDS011;44781;53.444;14.476;2022-12-05T10:54:23;22.40;;;14.80;;
58990;SDS011;44781;53.444;14.476;2022-12-05T10:56:55;19.10;;;14.00;;
58990;SDS011;44781;53.444;14.476;2022-12-05T10:59:24;21.80;;;15.70;;
58990;SDS011;44781;53.444;14.476;2022-12-05T11:02:17;20.90;;;16.00;;
58990;SDS011;44781;53.444;14.476;2022-12-05T11:04:49;20.70;;;14.60;;
58990;SDS011;44781;53.444;14.476;2022-12-05T11:09:49;24.50;;;16.80;;
58990;SDS011;44781;53.444;14.476;2022-12-05T11:12:18;23.10;;;16.80;;
58990;SDS011;44781;53.444;14.476;2022-12-05T11:15:01;26.10;;;17.10;;
58990;SDS011;44781;53.444;14.476;2022-12-05T11:17:51;26.40;;;18.70;;
58990;SDS011;44781;53.444;14.476;2022-12-05T11:22:56;21.50;;;14.80;;
58990;SDS011;44781;53.444;14.476;2022-12-05T11:25:31;22.40;;;15.70;;
58990;SDS011;44781;53.444;14.476;2022-12-05T11:28:29;23.30;;;16.40;;
58990;SDS011;44781;53.444;14.476;2022-12-05T11:30:56;26.40;;;18.10;;
58990;SDS011;44781;53.444;14.476;2022-12-05T11:33:34;24.90;;;18.10;;
58990;SDS011;44781;53.444;14.476;2022-12-05T11:36:13;24.80;;;16.80;;
58990;SDS011;44781;53.444;14.476;2022-12-05T11:38:45;22.40;;;16.10;;
58990;SDS011;44781;53.444;14.476;2022-12-05T11:41:18;19.50;;;14.20;;
58990;SDS011;44781;53.444;14.476;2022-12-05T11:55:32;22.90;;;17.00;;
58990;SDS011;44781;53.444;14.476;2022-12-05T12:12:59;24.40;;;16.50;;
58990;SDS011;44781;53.444;14.476;2022-12-05T12:18:43;22.00;;;14.50;;
58990;SDS011;44781;53.444;14.476;2022-12-05T12:21:16;21.30;;;13.80;;
58990;SDS011;44781;53.444;14.476;2022-12-05T12:23:58;22.30;;;15.00;;
58990;SDS011;44781;53.444;14.476;2022-12-05T12:29:49;16.50;;;11.90;;
58990;SDS011;44781;53.444;14.476;2022-12-05T12:37:42;17.00;;;12.20;;
58990;SDS011;44781;53.444;14.476;2022-12-05T12:43:13;27.90;;;19.20;;
58990;SDS011;44781;53.444;14.476;2022-12-05T12:49:13;19.30;;;13.40;;
58990;SDS011;44781;53.444;14.476;2022-12-05T12:51:48;21.90;;;13.90;;
58990;SDS011;44781;53.444;14.476;2022-12-05T13:03:02;21.00;;;11.70;;
58990;SDS011;44781;53.444;14.476;2022-12-05T13:05:38;16.00;;;10.30;;
58990;SDS011;44781;53.444;14.476;2022-12-05T13:08:29;16.50;;;11.20;;
58990;SDS011;44781;53.444;14.476;2022-12-05T13:11:11;16.60;;;10.20;;
58990;SDS011;44781;53.444;14.476;2022-12-05T13:13:51;19.10;;;12.60;;
58990;SDS011;44781;53.444;14.476;2022-12-05T13:18:53;16.80;;;11.60;;
58990;SDS011;44781;53.444;14.476;2022-12-05T13:21:22;18.80;;;13.30;;
58990;SDS011;44781;53.444;14.476;2022-12-05T13:23:51;17.60;;;13.10;;
58990;SDS011;44781;53.444;14.476;2022-12-05T13:26:23;16.80;;;12.20;;
58990;SDS011;44781;53.444;14.476;2022-12-05T13:28:54;17.20;;;12.40;;
58990;SDS011;44781;53.444;14.476;2022-12-05T13:34:41;17.40;;;12.00;;
58990;SDS011;44781;53.444;14.476;2022-12-05T13:37:35;18.80;;;13.10;;
58990;SDS011;44781;53.444;14.476;2022-12-05T13:43:09;17.10;;;11.20;;
58990;SDS011;44781;53.444;14.476;2022-12-05T13:45:39;18.80;;;12.00;;
58990;SDS011;44781;53.444;14.476;2022-12-05T13:48:19;15.50;;;10.80;;
58990;SDS011;44781;53.444;14.476;2022-12-05T13:50:53;19.10;;;12.40;;
58990;SDS011;44781;53.444;14.476;2022-12-05T13:56:25;19.40;;;14.60;;
58990;SDS011;44781;53.444;14.476;2022-12-05T13:59:11;18.30;;;13.80;;
58990;SDS011;44781;53.444;14.476;2022-12-05T14:01:43;18.60;;;13.70;;
58990;SDS011;44781;53.444;14.476;2022-12-05T14:04:23;24.40;;;16.20;;
58990;SDS011;44781;53.444;14.476;2022-12-05T14:07:09;18.20;;;12.90;;
58990;SDS011;44781;53.444;14.476;2022-12-05T14:09:50;20.20;;;13.50;;
58990;SDS011;44781;53.444;14.476;2022-12-05T14:17:25;20.80;;;15.40;;
58990;SDS011;44781;53.444;14.476;2022-12-05T14:22:47;23.70;;;17.70;;
58990;SDS011;44781;53.444;14.476;2022-12-05T14:33:24;18.60;;;13.10;;
58990;SDS011;44781;53.444;14.476;2022-12-05T14:35:51;17.30;;;12.20;;
58990;SDS011;44781;53.444;14.476;2022-12-05T14:38:32;18.30;;;12.50;;
58990;SDS011;44781;53.444;14.476;2022-12-05T14:41:12;18.40;;;12.70;;
58990;SDS011;44781;53.444;14.476;2022-12-05T14:43:43;19.50;;;13.60;;
58990;SDS011;44781;53.444;14.476;2022-12-05T14:46:30;23.50;;;15.20;;
58990;SDS011;44781;53.444;14.476;2022-12-05T14:52:18;20.80;;;14.50;;
58990;SDS011;44781;53.444;14.476;2022-12-05T14:55:02;22.10;;;15.30;;
58990;SDS011;44781;53.444;14.476;2022-12-05T14:57:46;22.80;;;15.20;;
58990;SDS011;44781;53.444;14.476;2022-12-05T15:00:22;21.40;;;14.80;;
58990;SDS011;44781;53.444;14.476;2022-12-05T15:02:50;20.80;;;14.10;;
58990;SDS011;44781;53.444;14.476;2022-12-05T15:05:31;20.90;;;14.10;;
58990;SDS011;44781;53.444;14.476;2022-12-05T15:08:00;23.20;;;16.50;;
58990;SDS011;44781;53.444;14.476;2022-12-05T15:10:35;21.50;;;16.00;;
58990;SDS011;44781;53.444;14.476;2022-12-05T15:13:07;21.30;;;14.30;;
58990;SDS011;44781;53.444;14.476;2022-12-05T15:21:00;19.80;;;13.50;;
58990;SDS011;44781;53.444;14.476;2022-12-05T15:24:03;19.70;;;14.20;;
58990;SDS011;44781;53.444;14.476;2022-12-05T15:26:53;21.20;;;15.20;;
58990;SDS011;44781;53.444;14.476;2022-12-05T15:29:23;24.70;;;16.30;;
58990;SDS011;44781;53.444;14.476;2022-12-05T15:42:24;22.80;;;15.90;;
58990;SDS011;44781;53.444;14.476;2022-12-05T15:53:24;28.70;;;19.70;;
58990;SDS011;44781;53.444;14.476;2022-12-05T15:56:02;26.80;;;20.30;;
58990;SDS011;44781;53.444;14.476;2022-12-05T16:06:56;20.90;;;16.00;;
58990;SDS011;44781;53.444;14.476;2022-12-05T16:09:31;19.90;;;14.40;;
58990;SDS011;44781;53.444;14.476;2022-12-05T16:14:53;25.90;;;17.90;;
58990;SDS011;44781;53.444;14.476;2022-12-05T16:17:23;24.20;;;17.90;;
58990;SDS011;44781;53.444;14.476;2022-12-05T16:20:10;29.30;;;21.10;;
58990;SDS011;44781;53.444;14.476;2022-12-05T16:22:48;27.80;;;19.70;;
58990;SDS011;44781;53.444;14.476;2022-12-05T16:25:17;24.40;;;17.60;;
58990;SDS011;44781;53.444;14.476;2022-12-05T16:30:24;30.90;;;21.50;;
58990;SDS011;44781;53.444;14.476;2022-12-05T16:33:03;30.40;;;20.40;;
58990;SDS011;44781;53.444;14.476;2022-12-05T16:35:42;27.50;;;20.10;;
58990;SDS011;44781;53.444;14.476;2022-12-05T16:38:24;28.30;;;19.80;;
58990;SDS011;44781;53.444;14.476;2022-12-05T16:48:40;28.60;;;19.90;;
58990;SDS011;44781;53.444;14.476;2022-12-05T16:53:41;32.50;;;24.40;;
58990;SDS011;44781;53.444;14.476;2022-12-05T16:56:19;36.00;;;26.70;;
58990;SDS011;44781;53.444;14.476;2022-12-05T16:59:03;37.70;;;28.00;;
58990;SDS011;44781;53.444;14.476;2022-12-05T17:01:33;28.80;;;21.00;;
58990;SDS011;44781;53.444;14.476;2022-12-05T17:04:01;26.30;;;18.90;;
58990;SDS011;44781;53.444;14.476;2022-12-05T17:06:28;41.90;;;30.50;;
58990;SDS011;44781;53.444;14.476;2022-12-05T17:08:55;40.70;;;31.10;;
58990;SDS011;44781;53.444;14.476;2022-12-05T17:11:23;37.00;;;27.00;;
58990;SDS011;44781;53.444;14.476;2022-12-05T17:13:53;42.30;;;28.30;;
58990;SDS011;44781;53.444;14.476;2022-12-05T17:16:22;38.80;;;27.10;;
58990;SDS011;44781;53.444;14.476;2022-12-05T17:18:52;43.80;;;28.20;;
58990;SDS011;44781;53.444;14.476;2022-12-05T17:21:25;42.50;;;27.70;;
58990;SDS011;44781;53.444;14.476;2022-12-05T17:23:57;32.10;;;20.80;;
58990;SDS011;44781;53.444;14.476;2022-12-05T17:26:25;29.20;;;18.70;;
58990;SDS011;44781;53.444;14.476;2022-12-05T17:28:52;31.20;;;21.50;;
58990;SDS011;44781;53.444;14.476;2022-12-05T17:31:20;31.90;;;20.80;;
58990;SDS011;44781;53.444;14.476;2022-12-05T17:33:50;39.70;;;24.30;;
58990;SDS011;44781;53.444;14.476;2022-12-05T17:36:18;47.20;;;26.40;;
58990;SDS011;44781;53.444;14.476;2022-12-05T17:38:49;43.20;;;24.30;;
58990;SDS011;44781;53.444;14.476;2022-12-05T17:41:17;39.70;;;23.80;;
58990;SDS011;44781;53.444;14.476;2022-12-05T17:43:48;54.70;;;27.90;;
58990;SDS011;44781;53.444;14.476;2022-12-05T17:46:18;46.70;;;28.50;;
58990;SDS011;44781;53.444;14.476;2022-12-05T17:48:48;43.90;;;27.90;;
58990;SDS011;44781;53.444;14.476;2022-12-05T17:51:19;51.60;;;35.30;;
58990;SDS011;44781;53.444;14.476;2022-12-05T17:53:49;44.70;;;32.80;;
58990;SDS011;44781;53.444;14.476;2022-12-05T17:56:18;41.70;;;26.00;;
58990;SDS011;44781;53.444;14.476;2022-12-05T17:58:46;44.10;;;25.90;;